Latest Weather Observations for Miles

IDQ60801

Issued at 5:35 pm EST Friday 25 April 2014 (issued every 30 minutes, with the page automatically refreshed every 10 minutes)

About weather observations | Map of weather stations | Latest weather observations for QLD | Other Formats
Station Details ID: 042112 Name: MILES CONSTANCE STREET Lat: -26.66 Lon: 150.18 Height: 304.8 m
Data from the previous 72 hours. | See also: Recent months at Miles
Date/Time
EST
Temp
°C
App
Temp
°C
Dew
Point
Rel
Hum
%
Delta-T
°C
Wind Press
QNH
hPa
Press
MSL
hPa
Rain
since 9 am
mm
Dir
 
Spd
km/h
Gust
km/h
Spd
kts
Gust
kts
25/05:30pm 25.6 23.8 7.8 32 9.6 E 7 9 4 5 1016.3 - 0.0
25/05:00pm 26.9 24.0 6.3 27 10.9 E 11 17 6 9 1016.0 - 0.0
25/04:30pm 27.6 24.8 7.0 27 11.1 E 11 15 6 8 1015.7 - 0.0
25/04:00pm 28.5 26.5 7.1 26 11.6 E 7 17 4 9 1015.7 - 0.0
25/03:30pm 28.7 24.9 4.0 20 12.7 E 13 22 7 12 1015.9 - 0.0
25/03:00pm 28.8 25.5 6.4 24 12.0 ENE 13 22 7 12 1015.8 1014.8 0.0
25/02:30pm 28.7 25.6 7.4 26 11.6 E 13 20 7 11 1015.8 - 0.0
25/02:00pm 28.7 25.0 6.2 24 12.0 E 15 20 8 11 1016.0 - 0.0
25/01:30pm 28.4 25.6 6.9 25 11.6 ESE 11 20 6 11 1016.5 - 0.0
25/01:00pm 28.5 26.2 7.3 26 11.5 SSE 9 22 5 12 1017.0 - 0.0
25/12:30pm 28.3 25.9 7.0 26 11.5 SE 9 20 5 11 1017.6 - 0.0
25/12:00pm 27.7 26.3 9.5 32 10.2 E 7 17 4 9 1018.2 1017.2 0.0
25/11:30am 27.3 27.0 11.6 37 9.1 WSW 4 9 2 5 1018.7 - 0.0
25/11:00am 26.9 25.9 11.0 37 9.1 E 7 13 4 7 1019.2 - 0.0
25/10:30am 26.2 25.9 11.4 39 8.5 NNE 4 9 2 5 1019.5 - 0.0
25/10:00am 25.0 25.2 14.7 52 6.2 N 7 11 4 6 1019.7 - 0.0
25/09:30am 24.3 24.8 15.6 58 5.3 NE 7 13 4 7 1019.7 - 0.0
25/09:00am 22.1 22.2 15.5 66 4.0 NE 9 15 5 8 1019.7 1018.7 0.0
25/08:30am 20.5 22.3 15.5 73 3.0 CALM 0 7 0 4 1019.6 - 0.0
25/08:00am 18.4 19.0 14.3 77 2.4 N 4 7 2 4 1019.4 - 0.0
25/07:30am 15.5 15.6 12.8 84 1.5 N 4 7 2 4 1018.9 - 0.0
25/07:00am 13.2 13.9 12.1 93 0.6 CALM 0 0 0 0 1018.6 - 0.0
25/06:30am 12.5 12.9 11.4 93 0.6 CALM 0 0 0 0 1018.4 - 0.0
25/06:00am 12.2 12.6 11.1 93 0.6 WNW 0 0 0 0 1018.1 1017.0 0.0
25/05:30am 12.3 12.7 11.2 93 0.6 CALM 0 0 0 0 1017.6 - 0.0
25/05:00am 12.6 12.3 11.3 92 0.7 N 4 7 2 4 1017.0 - 0.0
25/04:30am 13.3 13.6 10.9 85 1.3 CALM 0 7 0 4 1016.7 - 0.0
25/04:00am 13.0 12.2 10.9 87 1.1 N 6 7 3 4 1016.5 - 0.0
25/03:30am 13.4 12.6 11.0 85 1.3 N 6 7 3 4 1016.6 - 0.0
25/03:00am 13.5 13.9 11.1 85 1.3 CALM 0 4 0 2 1016.5 1015.5 0.0
25/02:30am 13.3 12.3 10.9 85 1.3 NNE 7 9 4 5 1016.5 - 0.0
25/02:00am 12.9 13.3 11.2 89 0.9 CALM 0 0 0 0 1016.8 - 0.0
25/01:30am 13.0 13.3 10.9 87 1.1 CALM 0 0 0 0 1016.9 - 0.0
25/01:00am 13.3 13.7 11.1 86 1.2 CALM 0 0 0 0 1017.0 - 0.0
25/12:30am 13.7 14.1 11.3 85 1.3 CALM 0 0 0 0 1017.2 - 0.0
25/12:00am 13.9 14.3 11.1 83 1.5 NNE 0 0 0 0 1017.4 1016.3 0.0
 
Date/Time
EST
Temp
°C
App
Temp
°C
Dew
Point
Rel
Hum
%
Delta-T
°C
Wind Press
QNH
hPa
Press
MSL
hPa
Rain
since 9 am
mm
Dir
 
Spd
km/h
Gust
km/h
Spd
kts
Gust
kts
24/11:30pm 14.0 14.4 11.4 84 1.4 CALM 0 0 0 0 1017.4 - 0.0
24/11:00pm 14.0 14.4 11.4 84 1.4 CALM 0 0 0 0 1017.5 - 0.0
24/10:30pm 14.4 15.0 11.8 84 1.4 CALM 0 0 0 0 1017.4 - 0.0
24/10:00pm 14.9 15.5 11.8 82 1.7 CALM 0 0 0 0 1017.5 - 0.0
24/09:30pm 15.2 15.7 11.7 79 1.9 CALM 0 0 0 0 1017.5 - 0.0
24/09:00pm 15.7 16.2 11.5 76 2.3 CALM 0 0 0 0 1017.4 1016.3 0.0
24/08:30pm 16.3 16.9 11.8 74 2.5 CALM 0 0 0 0 1017.0 - 0.0
24/08:00pm 17.2 17.8 11.8 70 3.0 CALM 0 0 0 0 1016.6 - 0.0
24/07:30pm 18.3 18.8 11.6 65 3.7 CALM 0 0 0 0 1016.3 - 0.0
24/07:00pm 19.4 19.6 10.7 57 4.8 CALM 0 0 0 0 1016.0 - 0.0
24/06:30pm 20.8 21.2 11.1 53 5.4 CALM 0 0 0 0 1015.6 - 0.0
24/06:00pm 22.3 23.1 12.6 54 5.6 CALM 0 0 0 0 1015.2 1014.1 0.0
24/05:30pm 25.2 23.8 8.8 35 9.0 ENE 6 9 3 5 1015.1 - 0.0
24/05:00pm 26.8 24.8 7.0 28 10.6 E 7 13 4 7 1014.8 - 0.0
24/04:30pm 27.8 26.0 7.9 28 10.9 E 7 13 4 7 1014.6 - 0.0
24/04:00pm 28.5 26.5 8.8 29 11.0 E 9 19 5 10 1014.5 - 0.0
24/03:30pm 28.6 26.0 7.8 27 11.4 E 11 17 6 9 1014.6 - 0.0
24/03:00pm 27.8 25.6 6.4 25 11.4 E 7 17 4 9 1014.7 1013.6 0.0
24/02:30pm 28.3 25.2 5.5 23 12.0 E 11 19 6 10 1014.9 - 0.0
24/02:00pm 29.1 26.2 6.4 24 12.2 E 11 33 6 18 1015.0 - 0.0
24/01:30pm 29.0 25.3 4.6 21 12.7 E 13 22 7 12 1015.1 - 0.0
24/01:00pm 28.1 25.7 7.0 26 11.4 E 9 20 5 11 1015.5 - 0.0
24/12:30pm 28.2 25.0 5.3 23 12.0 ESE 11 20 6 11 1016.2 - 0.0
24/12:00pm 28.3 26.4 9.2 30 10.7 NE 9 17 5 9 1016.8 1015.8 0.0
24/11:30am 27.6 25.5 11.1 35 9.5 NNE 13 20 7 11 1017.4 - 0.0
24/11:00am 27.3 26.4 13.8 43 8.1 NNE 11 22 6 12 1018.0 - 0.0
24/10:30am 26.3 25.5 14.0 46 7.4 N 11 19 6 10 1018.4 - 0.0
24/10:00am 25.0 25.5 15.5 55 5.8 NNE 7 13 4 7 1018.6 - 0.0
24/09:30am 24.2 25.1 16.1 60 5.0 NNE 6 13 3 7 1018.7 - 0.0
24/09:00am 21.7 22.3 15.9 69 3.5 N 7 11 4 6 1018.8 1017.8 0.0
24/08:30am 20.0 20.7 16.0 78 2.4 N 7 11 4 6 1018.8 - 0.0
24/08:00am 18.4 18.2 15.7 84 1.6 N 11 17 6 9 1018.7 - 0.0
24/07:30am 16.0 16.7 14.4 90 0.9 N 4 9 2 5 1018.3 - 0.0
24/07:00am 13.3 14.2 12.8 97 0.3 CALM 0 0 0 0 1018.0 - 0.0
24/06:30am 11.5 11.8 10.9 96 0.3 CALM 0 0 0 0 1018.0 - 0.0
24/06:00am 11.6 11.9 10.8 95 0.4 CALM 0 0 0 0 1017.6 1016.5 0.0
24/05:30am 11.9 12.3 11.3 96 0.3 CALM 0 0 0 0 1017.1 - 0.0
24/05:00am 12.3 12.8 11.6 95 0.4 CALM 0 0 0 0 1016.9 - 0.0
24/04:30am 12.4 12.4 11.3 93 0.6 N 2 6 1 3 1016.4 - 0.0
24/04:00am 12.5 11.7 11.2 92 0.7 N 6 7 3 4 1016.4 - 0.0
24/03:30am 12.7 12.0 11.4 92 0.7 N 6 7 3 4 1016.6 - 0.0
24/03:00am 13.1 12.4 11.4 89 0.9 N 6 9 3 5 1016.6 1015.6 0.0
24/02:30am 13.2 13.7 11.5 89 0.9 CALM 0 7 0 4 1016.9 - 0.0
24/02:00am 13.3 13.0 11.6 89 0.9 N 4 6 2 3 1017.1 - 0.0
24/01:30am 13.6 13.3 11.6 88 1.1 N 4 6 2 3 1017.4 - 0.0
24/01:00am 13.2 12.3 11.5 89 0.9 N 7 9 4 5 1017.5 - 0.0
24/12:30am 13.3 13.8 11.6 89 0.9 CALM 0 0 0 0 1017.8 - 0.0
24/12:00am 13.5 14.1 11.8 89 0.9 CALM 0 0 0 0 1018.0 1016.9 0.0
 
Date/Time
EST
Temp
°C
App
Temp
°C
Dew
Point
Rel
Hum
%
Delta-T
°C
Wind Press
QNH
hPa
Press
MSL
hPa
Rain
since 9 am
mm
Dir
 
Spd
km/h
Gust
km/h
Spd
kts
Gust
kts
23/11:30pm 13.7 13.9 11.7 88 1.1 N 2 6 1 3 1018.2 - 0.0
23/11:00pm 14.0 14.6 11.8 86 1.2 CALM 0 0 0 0 1018.4 - 0.0
23/10:30pm 14.2 14.9 12.2 88 1.1 CALM 0 0 0 0 1018.4 - 0.0
23/10:00pm 14.7 15.5 12.5 87 1.2 CALM 0 0 0 0 1018.4 - 0.0
23/09:30pm 15.2 16.0 12.5 84 1.5 CALM 0 0 0 0 1018.3 - 0.0
23/09:00pm 15.6 16.4 12.5 82 1.7 CALM 0 0 0 0 1018.3 1017.3 0.0
23/08:30pm 16.5 17.3 12.4 77 2.3 CALM 0 0 0 0 1018.1 - 0.0
23/08:00pm 16.9 17.6 12.2 74 2.6 CALM 0 0 0 0 1018.0 - 0.0
23/07:30pm 17.8 18.5 12.3 70 3.1 CALM 0 0 0 0 1017.7 - 0.0
23/07:00pm 18.9 19.5 11.9 64 3.9 CALM 0 0 0 0 1017.5 - 0.0
23/06:30pm 20.1 20.8 12.1 60 4.5 CALM 0 0 0 0 1017.2 - 0.0
23/06:00pm 21.8 22.6 12.6 56 5.3 CALM 0 0 0 0 1017.0 1016.0 0.0
23/05:30pm 24.1 23.8 10.1 41 7.8 NE 2 7 1 4 1016.8 - 0.0
23/05:00pm 25.6 22.8 8.6 34 9.3 ENE 13 17 7 9 1016.6 - 0.0
23/04:30pm 26.3 23.8 8.1 31 9.9 E 11 17 6 9 1016.5 - 0.0
23/04:00pm 27.4 25.2 7.7 28 10.7 E 9 19 5 10 1016.3 - 0.0
23/03:30pm 27.3 22.7 5.5 25 11.4 SE 19 24 10 13 1016.3 - 0.0
23/03:00pm 27.8 24.8 6.1 25 11.5 E 11 19 6 10 1016.4 1015.4 0.0
23/02:30pm 27.3 24.8 6.7 27 11.0 E 9 19 5 10 1016.6 - 0.0
23/02:00pm 27.5 24.8 5.6 24 11.5 SSE 9 19 5 10 1016.7 - 0.0
23/01:30pm 27.5 25.2 7.6 28 10.8 ESE 9 15 5 8 1016.8 - 0.0
23/01:00pm 27.3 24.8 8.4 30 10.4 E 11 17 6 9 1017.5 - 0.0
23/12:30pm 26.7 25.4 9.3 33 9.7 E 6 9 3 5 1018.0 - 0.0
23/12:00pm 27.1 25.0 9.6 33 9.8 NNE 11 20 6 11 1018.5 1017.5 0.0
23/11:30am 26.5 25.6 10.7 37 9.0 NW 6 13 3 7 1019.1 - 0.0
23/11:00am 26.7 25.8 11.2 38 8.9 N 7 13 4 7 1019.6 - 0.0
23/10:30am 26.2 25.3 12.5 42 8.0 N 9 20 5 11 1019.9 - 0.0
23/10:00am 25.2 24.4 12.9 46 7.2 N 9 17 5 9 1020.2 - 0.0
23/09:30am 24.4 23.6 14.0 52 6.2 N 11 19 6 10 1020.3 - 0.0
23/09:00am 23.1 23.8 16.1 64 4.3 N 7 13 4 7 1020.4 1019.4 0.0
23/08:30am 20.6 21.2 15.4 72 3.1 N 6 9 3 5 1020.4 - 0.0
23/08:00am 18.7 18.9 14.6 77 2.4 N 7 13 4 7 1020.2 - 0.0
23/07:30am 16.4 17.2 13.6 83 1.6 NNE 2 7 1 4 1020.2 - 0.0
23/07:00am 13.5 14.3 12.4 93 0.6 CALM 0 0 0 0 1020.2 - 0.0
23/06:30am 13.3 14.1 12.6 95 0.4 CALM 0 6 0 3 1019.8 - 0.0
23/06:00am 13.8 14.6 12.5 92 0.7 CALM 0 0 0 0 1019.7 1018.7 0.0
23/05:30am 14.2 13.8 12.4 89 1.0 N 6 7 3 4 1019.5 - 0.0
23/05:00am 14.5 13.9 12.3 87 1.2 N 7 9 4 5 1019.3 - 0.0
23/04:30am 14.8 14.4 12.4 85 1.3 N 6 9 3 5 1019.2 - 0.0
23/04:00am 15.0 14.6 12.5 85 1.4 N 6 7 3 4 1019.1 - 0.0
23/03:30am 15.0 14.6 12.5 85 1.4 N 6 7 3 4 1019.1 - 0.0
23/03:00am 15.1 15.6 12.8 86 1.3 N 2 6 1 3 1019.0 1018.0 0.0
23/02:30am 15.3 14.9 12.4 83 1.6 N 6 9 3 5 1018.9 - 0.0
23/02:00am 15.3 14.7 11.8 79 1.9 N 6 9 3 5 1019.0 - 0.0
23/01:30am 14.8 14.4 12.4 85 1.3 N 6 7 3 4 1019.3 - 0.0
23/01:00am 14.8 15.5 12.1 84 1.5 CALM 0 6 0 3 1019.6 - 0.0
23/12:30am 14.8 14.1 11.3 79 1.9 N 6 7 3 4 1019.6 - 0.0
23/12:00am 14.7 14.1 11.6 82 1.7 N 6 7 3 4 1019.8 1018.8 0.0
 
Date/Time
EST
Temp
°C
App
Temp
°C
Dew
Point
Rel
Hum
%
Delta-T
°C
Wind Press
QNH
hPa
Press
MSL
hPa
Rain
since 9 am
mm
Dir
 
Spd
km/h
Gust
km/h
Spd
kts
Gust
kts
22/11:30pm 14.6 14.0 11.7 83 1.6 N 6 7 3 4 1020.0 - 0.0
22/11:00pm 14.7 15.3 12.0 84 1.5 CALM 0 0 0 0 1020.1 - 0.0
22/10:30pm 15.3 15.8 11.6 78 2.0 CALM 0 0 0 0 1020.1 - 0.0
22/10:00pm 15.9 16.4 11.7 76 2.3 CALM 0 0 0 0 1020.0 - 0.0
22/09:30pm 16.0 16.4 11.2 73 2.6 CALM 0 0 0 0 1020.1 - 0.0
22/09:00pm 17.0 17.5 11.5 70 3.0 CALM 0 0 0 0 1020.1 1019.1 0.0
22/08:30pm 17.6 18.3 12.2 70 3.0 CALM 0 0 0 0 1019.9 - 0.0
22/08:00pm 18.3 18.7 11.4 64 3.8 CALM 0 0 0 0 1019.7 - 0.0
22/07:30pm 19.9 19.4 12.1 60 4.4 NNE 6 7 3 4 1019.6 - 0.0
22/07:00pm 21.9 20.6 9.1 44 6.9 ENE 6 7 3 4 1019.2 - 0.0
22/06:30pm 22.6 21.0 8.9 41 7.4 E 7 9 4 5 1018.9 - 0.0
22/06:00pm 23.1 21.9 9.6 42 7.4 E 6 9 3 5 1018.6 1017.6 0.0

Other Formats:

Comma delimited format used in spreadsheet applications
http://www.bom.gov.au/fwo/IDQ60801/IDQ60801.95529.axf

JavaScript Object Notation format (JSON) in row-major order
http://www.bom.gov.au/fwo/IDQ60801/IDQ60801.95529.json